createdAt,value
2018-11-11T00:00:14.078Z,33.20
2018-11-11T00:02:43.117Z,33.53
2018-11-11T00:05:12.262Z,32.53
2018-11-11T00:07:41.310Z,32.37
2018-11-11T00:10:10.008Z,33.37
2018-11-11T00:12:39.538Z,30.50
2018-11-11T00:15:11.795Z,31.80
2018-11-11T00:17:41.671Z,30.53
2018-11-11T00:20:11.393Z,30.43
2018-11-11T00:22:40.494Z,29.37
2018-11-11T00:25:09.866Z,33.47
2018-11-11T00:27:39.451Z,31.47
2018-11-11T00:30:10.396Z,29.40
2018-11-11T00:32:39.251Z,30.57
2018-11-11T00:35:08.397Z,30.37
2018-11-11T00:37:37.223Z,30.70
2018-11-11T00:40:06.150Z,30.73
2018-11-11T00:42:35.327Z,30.10
2018-11-11T00:45:04.219Z,29.23
2018-11-11T00:47:33.045Z,29.20
2018-11-11T00:50:02.105Z,28.07
2018-11-11T00:52:31.082Z,29.17
2018-11-11T00:55:00.181Z,27.87
2018-11-11T00:57:29.430Z,30.97
2018-11-11T00:59:58.060Z,28.40
2018-11-11T01:02:27.074Z,31.10
2018-11-11T01:04:55.812Z,27.33
2018-11-11T01:07:24.582Z,31.50
2018-11-11T01:09:53.339Z,29.00
2018-11-11T01:12:22.271Z,29.70
2018-11-11T01:14:50.992Z,28.30
2018-11-11T01:17:20.244Z,30.10
2018-11-11T01:19:49.164Z,29.73
2018-11-11T01:22:18.276Z,30.13
2018-11-11T01:24:47.142Z,30.70
2018-11-11T01:27:15.941Z,29.17
2018-11-11T01:29:44.717Z,30.23
2018-11-11T01:32:13.553Z,31.50
2018-11-11T01:34:42.330Z,30.43
2018-11-11T01:37:11.040Z,29.10
2018-11-11T01:39:39.720Z,30.43
2018-11-11T01:42:08.769Z,31.07
2018-11-11T01:44:37.694Z,34.87
2018-11-11T01:47:06.582Z,32.17
2018-11-11T01:49:35.705Z,33.00
2018-11-11T01:52:04.813Z,31.43
2018-11-11T01:54:33.525Z,34.30
2018-11-11T01:57:02.280Z,32.77
2018-11-11T01:59:31.124Z,31.63
2018-11-11T02:01:59.906Z,34.10
2018-11-11T02:04:28.553Z,35.67
2018-11-11T02:06:57.321Z,34.00
2018-11-11T02:09:26.010Z,34.73
2018-11-11T02:11:54.945Z,35.10
2018-11-11T02:14:24.036Z,35.83
2018-11-11T02:16:52.945Z,35.63
2018-11-11T02:19:21.839Z,34.20
2018-11-11T02:21:50.718Z,34.83
2018-11-11T02:24:19.715Z,33.63
2018-11-11T02:26:48.773Z,34.90
2018-11-11T02:29:17.476Z,33.73
2018-11-11T02:31:46.061Z,35.50
2018-11-11T02:34:15.082Z,32.67
2018-11-11T02:36:43.815Z,33.10
2018-11-11T02:39:12.511Z,31.60
2018-11-11T02:41:41.266Z,32.23
2018-11-11T02:44:10.242Z,33.07
2018-11-11T02:46:39.226Z,34.57
2018-11-11T02:49:08.243Z,34.67
2018-11-11T02:51:37.099Z,33.53
2018-11-11T02:54:06.060Z,32.27
2018-11-11T02:56:34.945Z,33.17
2018-11-11T02:59:03.801Z,30.90
2018-11-11T03:01:32.519Z,30.03
2018-11-11T03:04:01.745Z,32.77
2018-11-11T03:06:30.622Z,33.23
2018-11-11T03:08:59.357Z,32.07
2018-11-11T03:11:28.443Z,32.37
2018-11-11T03:13:57.142Z,31.27
2018-11-11T03:16:26.191Z,33.77
2018-11-11T03:18:55.127Z,31.80
2018-11-11T03:21:24.270Z,31.57
2018-11-11T03:23:53.110Z,33.03
2018-11-11T03:26:22.167Z,35.10
2018-11-11T03:28:51.232Z,32.93
2018-11-11T03:31:20.128Z,31.43
2018-11-11T03:33:48.891Z,32.50
2018-11-11T03:36:17.605Z,31.17
2018-11-11T03:38:46.540Z,31.03
2018-11-11T03:41:15.458Z,32.87
2018-11-11T03:43:44.566Z,33.70
2018-11-11T03:46:13.490Z,34.63
2018-11-11T03:48:42.199Z,43.00
2018-11-11T03:51:11.018Z,32.83
2018-11-11T03:53:40.177Z,34.00
2018-11-11T03:56:09.101Z,32.13
2018-11-11T03:58:38.374Z,34.23
2018-11-11T04:01:07.829Z,33.10
2018-11-11T04:03:36.484Z,33.37
2018-11-11T04:06:05.074Z,30.93
2018-11-11T04:08:33.816Z,30.80
2018-11-11T04:11:02.807Z,32.07
2018-11-11T04:13:31.903Z,31.00
2018-11-11T04:16:01.029Z,30.37
2018-11-11T04:18:30.011Z,31.03
2018-11-11T04:20:59.059Z,31.00
2018-11-11T04:23:27.948Z,31.40
2018-11-11T04:25:56.688Z,27.50
2018-11-11T04:28:25.678Z,27.83
2018-11-11T04:30:54.598Z,31.17
2018-11-11T04:33:23.206Z,29.17
2018-11-11T04:35:51.967Z,31.03
2018-11-11T04:38:20.630Z,31.70
2018-11-11T04:40:49.566Z,32.73
2018-11-11T04:43:18.877Z,32.23
2018-11-11T04:45:47.810Z,32.23
2018-11-11T04:48:16.713Z,34.53
2018-11-11T04:50:45.765Z,32.23
2018-11-11T04:53:14.685Z,34.77
2018-11-11T04:55:43.592Z,37.50
2018-11-11T04:58:12.234Z,36.87
2018-11-11T05:00:41.191Z,35.17
2018-11-11T05:03:09.874Z,36.80
2018-11-11T05:05:38.534Z,36.13
2018-11-11T05:08:07.210Z,35.43
2018-11-11T05:10:36.063Z,36.20
2018-11-11T05:13:05.161Z,37.33
2018-11-11T05:15:34.146Z,38.23
2018-11-11T05:18:02.996Z,38.37
2018-11-11T05:20:31.930Z,39.83
2018-11-11T05:23:00.686Z,37.57
2018-11-11T05:25:29.658Z,38.83
2018-11-11T05:27:58.684Z,36.07
2018-11-11T05:30:27.695Z,37.87
2018-11-11T05:32:56.537Z,34.40
2018-11-11T05:35:25.357Z,39.10
2018-11-11T05:37:53.965Z,35.23
2018-11-11T05:40:23.059Z,38.17
2018-11-11T05:42:54.670Z,37.03
2018-11-11T05:45:24.505Z,41.60
2018-11-11T05:47:53.467Z,36.03
2018-11-11T05:50:22.380Z,35.37
2018-11-11T05:52:51.155Z,35.60
2018-11-11T05:55:20.059Z,35.23
2018-11-11T05:57:49.128Z,34.23
2018-11-11T06:00:18.662Z,34.47
2018-11-11T06:02:47.347Z,35.57
2018-11-11T06:05:16.562Z,36.13
2018-11-11T06:07:45.311Z,35.20
2018-11-11T06:10:15.150Z,35.43
2018-11-11T06:12:44.189Z,32.63
2018-11-11T06:15:13.622Z,32.30
2018-11-11T06:17:42.591Z,29.37
2018-11-11T06:20:14.269Z,31.43
2018-11-11T06:22:43.438Z,27.93
2018-11-11T06:25:12.611Z,29.10
2018-11-11T06:27:41.315Z,29.77
2018-11-11T06:30:11.027Z,30.20
2018-11-11T06:32:39.861Z,29.17
2018-11-11T06:35:08.577Z,26.90
2018-11-11T06:37:37.304Z,30.13
2018-11-11T06:40:07.972Z,29.77
2018-11-11T06:42:36.873Z,29.20
2018-11-11T06:45:07.184Z,31.80
2018-11-11T06:47:36.338Z,29.97
2018-11-11T06:50:06.024Z,33.30
2018-11-11T06:52:34.760Z,32.17
2018-11-11T06:55:03.638Z,32.13
2018-11-11T06:57:32.735Z,33.93
2018-11-11T07:00:01.829Z,32.00
2018-11-11T07:02:36.936Z,32.23
2018-11-11T07:05:06.906Z,32.60
2018-11-11T07:07:35.834Z,35.03
2018-11-11T07:10:05.043Z,34.27
2018-11-11T07:12:33.707Z,37.03
2018-11-11T07:15:02.457Z,35.50
2018-11-11T07:17:31.326Z,33.40
2018-11-11T07:20:00.288Z,35.60
2018-11-11T07:22:29.118Z,34.17
2018-11-11T07:24:58.118Z,37.30
2018-11-11T07:27:27.064Z,33.93
2018-11-11T07:29:55.687Z,34.70
2018-11-11T07:32:24.410Z,35.17
2018-11-11T07:34:53.275Z,34.23
2018-11-11T07:37:22.032Z,34.43
2018-11-11T07:39:50.839Z,34.83
2018-11-11T07:42:19.755Z,36.57
2018-11-11T07:44:48.602Z,34.67
2018-11-11T07:47:17.678Z,36.70
2018-11-11T07:49:46.581Z,37.57
2018-11-11T07:52:15.452Z,35.63
2018-11-11T07:54:44.657Z,34.37
2018-11-11T07:57:13.798Z,35.37
2018-11-11T07:59:42.903Z,36.80
2018-11-11T08:02:11.689Z,37.30
2018-11-11T08:04:40.358Z,35.43
2018-11-11T08:07:09.250Z,38.70
2018-11-11T08:09:38.058Z,38.53
2018-11-11T08:12:07.584Z,39.17
2018-11-11T08:14:36.568Z,35.60
2018-11-11T08:17:05.868Z,35.53
2018-11-11T08:19:34.915Z,37.00
2018-11-11T08:22:03.797Z,36.17
2018-11-11T08:24:32.791Z,38.33
2018-11-11T08:27:02.134Z,39.73
2018-11-11T08:29:30.995Z,37.17
2018-11-11T08:31:59.672Z,37.07
2018-11-11T08:34:28.431Z,37.17
2018-11-11T08:36:57.094Z,35.27
2018-11-11T08:39:25.770Z,37.17
2018-11-11T08:41:54.646Z,36.87
2018-11-11T08:44:23.524Z,36.57
2018-11-11T08:46:52.423Z,38.30
2018-11-11T08:49:21.353Z,36.70
2018-11-11T08:51:50.185Z,38.10
2018-11-11T08:54:19.189Z,37.23
2018-11-11T08:56:48.133Z,37.97
2018-11-11T08:59:16.942Z,35.80
2018-11-11T09:01:45.710Z,38.27
2018-11-11T09:04:14.386Z,38.30
2018-11-11T09:06:43.049Z,36.43
2018-11-11T09:09:12.035Z,38.90
2018-11-11T09:11:41.340Z,39.93
2018-11-11T09:14:10.142Z,35.83
2018-11-11T09:16:39.143Z,37.27
2018-11-11T09:19:08.088Z,37.50
2018-11-11T09:21:37.016Z,38.00
2018-11-11T09:24:06.329Z,38.83
2018-11-11T09:26:35.233Z,37.30
2018-11-11T09:29:04.971Z,38.47
2018-11-11T09:31:33.998Z,42.17
2018-11-11T09:34:02.743Z,38.27
2018-11-11T09:36:31.502Z,36.20
2018-11-11T09:39:01.250Z,34.93
2018-11-11T09:41:30.494Z,38.20
2018-11-11T09:43:59.582Z,35.43
2018-11-11T09:46:28.622Z,35.07
2018-11-11T09:48:57.467Z,33.97
2018-11-11T09:51:26.758Z,33.50
2018-11-11T09:53:55.607Z,34.13
2018-11-11T09:56:24.542Z,32.33
2018-11-11T09:58:53.443Z,33.13
2018-11-11T10:01:22.685Z,33.90
2018-11-11T10:04:56.997Z,30.57
2018-11-11T10:07:35.876Z,31.60
2018-11-11T10:10:12.028Z,32.53
2018-11-11T10:12:46.946Z,31.47
2018-11-11T10:15:23.514Z,29.20
2018-11-11T10:17:57.754Z,28.03
2018-11-11T10:20:31.723Z,28.10
2018-11-11T10:23:35.351Z,29.23
2018-11-11T10:26:07.850Z,27.47
2018-11-11T10:28:41.242Z,27.23
2018-11-11T10:31:20.102Z,28.67
2018-11-11T10:33:59.455Z,27.97
2018-11-11T10:36:34.256Z,25.63
2018-11-11T10:39:10.019Z,25.03
2018-11-11T10:41:44.141Z,23.43
2018-11-11T10:44:20.050Z,21.90
2018-11-11T10:46:53.904Z,22.17
2018-11-11T10:49:27.697Z,23.17
2018-11-11T10:51:56.639Z,19.07
2018-11-11T10:54:25.510Z,22.37
2018-11-11T10:56:54.243Z,23.77
2018-11-11T10:59:23.060Z,22.77
2018-11-11T11:02:59.133Z,21.47
2018-11-11T11:05:27.876Z,21.33
2018-11-11T11:07:56.846Z,21.40
2018-11-11T11:10:25.784Z,24.87
2018-11-11T11:12:55.038Z,23.90
2018-11-11T11:15:23.993Z,24.00
2018-11-11T11:17:52.779Z,21.93
2018-11-11T11:20:21.716Z,22.73
2018-11-11T11:22:50.888Z,22.03
2018-11-11T11:25:19.959Z,23.33
2018-11-11T11:27:49.142Z,23.37
2018-11-11T11:30:18.266Z,23.50
2018-11-11T11:32:46.976Z,22.13
2018-11-11T11:35:15.783Z,22.70
2018-11-11T11:37:44.742Z,22.33
2018-11-11T11:40:13.614Z,22.07
2018-11-11T11:42:42.512Z,20.80
2018-11-11T11:45:12.318Z,21.80
2018-11-11T11:47:41.939Z,20.20
2018-11-11T11:50:12.399Z,20.80
2018-11-11T11:52:42.136Z,21.27
2018-11-11T11:55:11.723Z,19.20
2018-11-11T11:57:40.885Z,18.80
2018-11-11T12:00:11.939Z,16.90
2018-11-11T12:02:40.996Z,17.40
2018-11-11T12:05:10.271Z,16.57
2018-11-11T12:07:39.250Z,16.73
2018-11-11T12:10:09.746Z,16.77
2018-11-11T12:12:39.467Z,18.43
2018-11-11T12:15:09.523Z,15.20
2018-11-11T12:17:38.552Z,16.50
2018-11-11T12:20:07.895Z,17.77
2018-11-11T12:22:36.617Z,18.07
2018-11-11T12:25:06.267Z,18.47
2018-11-11T12:27:35.156Z,18.83
2018-11-11T12:30:04.346Z,18.33
2018-11-11T12:32:33.251Z,18.47
2018-11-11T12:35:01.956Z,19.70
2018-11-11T12:37:30.627Z,19.37
2018-11-11T12:39:59.701Z,19.40
2018-11-11T12:42:28.292Z,19.50
2018-11-11T12:44:57.276Z,20.53
2018-11-11T12:47:26.538Z,19.80
2018-11-11T12:49:55.694Z,22.33
2018-11-11T12:52:24.469Z,20.33
2018-11-11T12:54:53.349Z,18.83
2018-11-11T12:57:22.576Z,20.13
2018-11-11T12:59:51.451Z,20.43
2018-11-11T13:02:20.242Z,20.17
2018-11-11T13:04:49.126Z,22.70
2018-11-11T13:07:17.753Z,20.23
2018-11-11T13:09:46.511Z,21.80
2018-11-11T13:12:15.400Z,18.87
2018-11-11T13:14:44.150Z,20.20
2018-11-11T13:17:13.238Z,20.53
2018-11-11T13:19:42.036Z,20.47
2018-11-11T13:22:11.036Z,20.03
2018-11-11T13:24:39.767Z,19.47
2018-11-11T13:27:09.454Z,20.50
2018-11-11T13:29:38.493Z,19.10
2018-11-11T13:32:07.365Z,19.70
2018-11-11T13:34:36.387Z,20.57
2018-11-11T13:37:05.142Z,19.87
2018-11-11T13:39:34.285Z,19.77
2018-11-11T13:42:03.237Z,20.50
2018-11-11T13:44:32.160Z,20.47
2018-11-11T13:47:01.583Z,20.83
2018-11-11T13:49:30.526Z,19.67
2018-11-11T13:51:59.342Z,19.13
2018-11-11T13:54:28.306Z,19.23
2018-11-11T13:56:57.027Z,20.10
2018-11-11T13:59:26.096Z,20.17
2018-11-11T14:01:55.174Z,20.43
2018-11-11T14:04:23.901Z,21.43
2018-11-11T14:06:51.505Z,22.03
2018-11-11T14:09:20.515Z,23.30
2018-11-11T14:11:49.378Z,20.90
2018-11-11T14:14:18.522Z,19.73
2018-11-11T14:16:47.503Z,22.33
2018-11-11T14:19:16.704Z,23.57
2018-11-11T14:21:45.498Z,24.37
2018-11-11T14:24:14.231Z,26.70
2018-11-11T14:26:43.671Z,26.70
2018-11-11T14:29:12.411Z,25.23
2018-11-11T14:31:41.382Z,24.87
2018-11-11T14:34:10.062Z,31.20
2018-11-11T14:36:38.810Z,30.67
2018-11-11T14:39:11.062Z,31.87
2018-11-11T14:41:40.725Z,38.57
2018-11-11T14:44:09.767Z,156.03
2018-11-11T14:46:39.200Z,92.20
2018-11-11T14:49:08.850Z,68.53
2018-11-11T14:51:37.938Z,62.00
2018-11-11T14:54:07.085Z,29.80
2018-11-11T14:56:36.014Z,27.77
2018-11-11T14:59:05.234Z,33.97
2018-11-11T15:01:34.158Z,32.37
2018-11-11T15:04:03.325Z,31.00
2018-11-11T15:06:32.182Z,33.33
2018-11-11T15:09:00.927Z,34.63
2018-11-11T15:11:30.197Z,37.20
2018-11-11T15:13:59.008Z,39.83
2018-11-11T15:16:28.018Z,40.67
2018-11-11T15:18:57.601Z,42.13
2018-11-11T15:21:26.730Z,41.20
2018-11-11T15:23:55.621Z,40.00
2018-11-11T15:26:24.535Z,39.30
2018-11-11T15:28:53.447Z,41.47
2018-11-11T15:31:22.344Z,41.20
2018-11-11T15:33:51.083Z,43.43
2018-11-11T15:36:20.162Z,44.27
2018-11-11T15:38:48.962Z,41.33
2018-11-11T15:41:18.068Z,41.67
2018-11-11T15:43:46.992Z,45.47
2018-11-11T15:46:15.850Z,47.33
2018-11-11T15:48:44.745Z,53.33
2018-11-11T15:51:13.524Z,49.97
2018-11-11T15:53:42.697Z,46.17
2018-11-11T15:56:11.505Z,46.33
2018-11-11T15:58:40.453Z,45.30
2018-11-11T16:01:09.285Z,43.57
2018-11-11T16:03:38.277Z,38.60
2018-11-11T16:06:07.531Z,40.63
2018-11-11T16:08:36.275Z,39.50
2018-11-11T16:11:05.814Z,39.40
2018-11-11T16:13:35.085Z,34.83
2018-11-11T16:16:03.787Z,38.77
2018-11-11T16:18:33.624Z,38.47
2018-11-11T16:21:02.988Z,38.93
2018-11-11T16:23:32.141Z,35.70
2018-11-11T16:26:01.173Z,36.07
2018-11-11T16:28:29.906Z,34.70
2018-11-11T16:30:58.694Z,33.63
2018-11-11T16:33:27.575Z,32.93
2018-11-11T16:35:56.357Z,33.63
2018-11-11T16:38:25.189Z,34.43
2018-11-11T16:40:54.067Z,34.50
2018-11-11T16:43:23.078Z,36.17
2018-11-11T16:45:51.775Z,35.33
2018-11-11T16:48:20.864Z,38.57
2018-11-11T16:50:50.649Z,36.37
2018-11-11T16:53:19.740Z,37.37
2018-11-11T16:55:48.986Z,38.83
2018-11-11T16:58:17.838Z,35.60
2018-11-11T17:00:46.614Z,39.07
2018-11-11T17:03:15.295Z,39.13
2018-11-11T17:05:44.202Z,37.37
2018-11-11T17:08:12.959Z,37.73
2018-11-11T17:10:41.893Z,40.33
2018-11-11T17:13:12.025Z,37.07
2018-11-11T17:15:40.953Z,38.70
2018-11-11T17:18:09.837Z,36.23
2018-11-11T17:20:38.907Z,35.20
2018-11-11T17:23:08.507Z,37.60
2018-11-11T17:25:37.439Z,39.77
2018-11-11T17:28:06.836Z,38.87
2018-11-11T17:30:35.614Z,44.13
2018-11-11T17:33:04.708Z,47.20
2018-11-11T17:35:33.723Z,58.10
2018-11-11T17:38:02.675Z,50.90
2018-11-11T17:40:32.025Z,51.50
2018-11-11T17:43:01.723Z,52.30
2018-11-11T17:45:30.818Z,49.60
2018-11-11T17:47:59.962Z,49.20
2018-11-11T17:50:30.158Z,52.13
2018-11-11T17:53:00.163Z,51.87
2018-11-11T17:55:29.829Z,53.07
2018-11-11T17:57:58.971Z,55.00
2018-11-11T18:00:28.920Z,53.30
2018-11-11T18:02:58.294Z,54.30
2018-11-11T18:05:28.375Z,62.77
2018-11-11T18:07:57.180Z,54.30
2018-11-11T18:10:26.715Z,49.37
2018-11-11T18:12:55.607Z,64.57
2018-11-11T18:15:27.097Z,55.43
2018-11-11T18:17:55.749Z,55.27
2018-11-11T18:20:26.921Z,56.13
2018-11-11T18:22:56.334Z,59.63
2018-11-11T18:25:25.164Z,58.30
2018-11-11T18:27:53.898Z,56.50
2018-11-11T18:30:25.347Z,53.60
2018-11-11T18:32:54.094Z,51.23
2018-11-11T18:35:29.662Z,53.70
2018-11-11T18:37:58.902Z,53.27
2018-11-11T18:40:28.919Z,53.47
2018-11-11T18:42:57.854Z,48.33
2018-11-11T18:45:28.070Z,47.17
2018-11-11T18:47:57.284Z,47.73
2018-11-11T18:50:27.531Z,46.93
2018-11-11T18:52:56.357Z,45.40
2018-11-11T18:55:25.382Z,46.97
2018-11-11T18:57:54.074Z,48.53
2018-11-11T19:00:24.402Z,47.70
2018-11-11T19:02:54.009Z,48.50
2018-11-11T19:05:23.418Z,48.43
2018-11-11T19:07:52.364Z,51.83
2018-11-11T19:10:29.173Z,50.77
2018-11-11T19:12:59.709Z,57.03
2018-11-11T19:15:28.759Z,55.47
2018-11-11T19:17:57.694Z,53.50
2018-11-11T19:20:27.117Z,55.80
2018-11-11T19:22:55.958Z,57.97
2018-11-11T19:25:26.257Z,67.67
2018-11-11T19:27:55.546Z,71.13
2018-11-11T19:30:25.652Z,61.13
2018-11-11T19:32:54.645Z,54.67
2018-11-11T19:35:23.430Z,83.00
2018-11-11T19:37:53.404Z,69.47
2018-11-11T19:40:23.466Z,70.23
2018-11-11T19:42:53.132Z,62.47
2018-11-11T19:45:23.355Z,61.13
2018-11-11T19:47:52.210Z,61.23
2018-11-11T19:50:22.294Z,56.33
2018-11-11T19:52:52.526Z,52.00
2018-11-11T19:55:21.892Z,52.37
2018-11-11T19:57:51.518Z,54.63
2018-11-11T20:00:23.340Z,52.03
2018-11-11T20:02:52.741Z,53.47
2018-11-11T20:05:22.192Z,51.03
2018-11-11T20:07:52.162Z,50.40
2018-11-11T20:10:21.630Z,51.70
2018-11-11T20:12:50.825Z,50.83
2018-11-11T20:15:23.045Z,50.03
2018-11-11T20:17:52.027Z,51.87
2018-11-11T20:20:23.291Z,49.97
2018-11-11T20:22:52.333Z,49.93
2018-11-11T20:25:21.739Z,51.97
2018-11-11T20:27:50.594Z,53.50
2018-11-11T20:30:25.055Z,52.23
2018-11-11T20:32:53.879Z,52.93
2018-11-11T20:35:24.243Z,51.00
2018-11-11T20:37:53.133Z,53.13
2018-11-11T20:40:23.023Z,50.80
2018-11-11T20:42:52.239Z,49.17
2018-11-11T20:45:22.498Z,49.60
2018-11-11T20:47:52.166Z,52.43
2018-11-11T20:50:22.336Z,56.80
2018-11-11T20:52:52.867Z,62.53
2018-11-11T20:55:22.229Z,68.37
2018-11-11T20:57:51.655Z,67.57
2018-11-11T21:00:21.819Z,64.83
2018-11-11T21:02:50.759Z,58.33
2018-11-11T21:05:21.374Z,60.97
2018-11-11T21:07:50.447Z,62.63
2018-11-11T21:10:20.674Z,63.47
2018-11-11T21:12:49.355Z,71.60
2018-11-11T21:15:19.747Z,67.30
2018-11-11T21:17:49.308Z,61.60
2018-11-11T21:20:19.920Z,59.90
2018-11-11T21:22:48.787Z,50.37
2018-11-11T21:25:17.569Z,48.73
2018-11-11T21:27:47.105Z,49.17
2018-11-11T21:30:17.455Z,52.53
2018-11-11T21:32:46.367Z,54.73
2018-11-11T21:35:15.447Z,52.03
2018-11-11T21:37:44.531Z,51.90
2018-11-11T21:40:15.362Z,53.27
2018-11-11T21:42:45.537Z,55.30
2018-11-11T21:45:15.970Z,56.77
2018-11-11T21:47:45.129Z,60.07
2018-11-11T21:50:17.511Z,59.07
2018-11-11T21:53:49.883Z,55.53
2018-11-11T21:56:19.331Z,53.20
2018-11-11T21:58:48.043Z,53.83
2018-11-11T22:01:16.698Z,48.60
2018-11-11T22:03:45.544Z,50.13
2018-11-11T22:06:14.526Z,48.00
2018-11-11T22:08:43.567Z,45.47
2018-11-11T22:11:12.847Z,44.20
2018-11-11T22:13:42.003Z,45.07
2018-11-11T22:16:10.919Z,43.73
2018-11-11T22:18:40.739Z,41.87
2018-11-11T22:21:09.528Z,40.83
2018-11-11T22:23:38.353Z,41.07
2018-11-11T22:26:07.462Z,39.37
2018-11-11T22:28:36.117Z,43.73
2018-11-11T22:31:04.694Z,45.63
2018-11-11T22:33:33.450Z,43.80
2018-11-11T22:36:02.161Z,45.60
2018-11-11T22:38:31.045Z,48.73
2018-11-11T22:41:00.260Z,46.90
2018-11-11T22:43:29.140Z,44.70
2018-11-11T22:45:58.086Z,44.67
2018-11-11T22:48:27.446Z,43.90
2018-11-11T22:50:56.428Z,44.50
2018-11-11T22:53:25.125Z,42.30
2018-11-11T22:55:54.521Z,43.67
2018-11-11T22:58:23.327Z,39.90
2018-11-11T23:00:57.401Z,42.43
2018-11-11T23:03:26.387Z,39.27
2018-11-11T23:05:55.382Z,35.70
2018-11-11T23:08:24.443Z,35.40
2018-11-11T23:10:53.919Z,34.33
2018-11-11T23:13:22.994Z,31.80
2018-11-11T23:15:52.282Z,30.53
2018-11-11T23:18:21.137Z,29.57
2018-11-11T23:20:50.092Z,29.90
2018-11-11T23:23:19.378Z,28.50
2018-11-11T23:25:48.484Z,28.77
2018-11-11T23:28:17.289Z,30.30
2018-11-11T23:30:46.254Z,30.00
2018-11-11T23:33:15.207Z,28.53
2018-11-11T23:35:44.202Z,30.27
2018-11-11T23:38:13.145Z,30.40
2018-11-11T23:40:41.778Z,29.00
2018-11-11T23:43:10.509Z,27.07
2018-11-11T23:45:39.717Z,27.00
2018-11-11T23:48:08.597Z,26.93
2018-11-11T23:50:37.510Z,27.20
2018-11-11T23:53:06.714Z,29.30
2018-11-11T23:55:35.696Z,23.47
2018-11-11T23:58:04.470Z,24.30
